Flight Track Log - Related Links

Times and Time Zones

All times are in EST time to prevent confusion due to time zone crossing. See the C-GTGV flight status page for this flight to view local times or setup timezone preferences in your user account.

Time Position Orientation Groundspeed Altitude Reporting Facility
EST Latitude Longitude Course Direction KTS MPH feet Rate Location/Type
Sat 09:37:39 PM 46.0000 -72.5167 226° Southwest 210 242 10,000  Level Montreal Center
Sat 09:38:39 PM 45.9667 -72.5667 234° Southwest 220 253 10,000 -300 Level Montreal Center
Sat 09:39:39 PM 45.9333 -72.6333 234° Southwest 220 253 9,400 -650 Descending Montreal Center
Sat 09:40:39 PM 45.9000 -72.7000 223° Southwest 220 253 8,700 -700 Descending Montreal Center
Sat 09:41:39 PM 45.8500 -72.7667 215° Southwest 220 253 8,000 -350 Descending Montreal Center
Sat 09:42:39 PM 45.8000 -72.8167 240° Southwest 220 253 8,000  Level Montreal Center
Sat 09:43:39 PM 45.7667 -72.9000 215° Southwest 210 242 8,000  Level Montreal Center
Sat 09:44:39 PM 45.7167 -72.9500 250° West 210 242 8,000 -400 Level Montreal Center
Sat 09:45:39 PM 45.7000 -73.0167 250° West 200 230 7,200 -850 Descending Montreal Center
Sat 09:46:39 PM 45.6833 -73.0833 254° West 190 219 6,300 -900 Descending Montreal Center
Sat 09:47:39 PM 45.6667 -73.1667 250° West 200 230 5,400 -700 Descending Montreal Center
Sat 09:48:39 PM 45.6500 -73.2333 283° West 190 219 4,900 -600 Descending Montreal Center
Sat 09:49:39 PM 45.6667 -73.3333 245° Southwest 190 219 4,200 -650 Descending Montreal Center
Sat 09:50:39 PM 45.6500 -73.3833 250° West 190 219 3,600 -600 Descending Montreal Center
Sat 09:51:39 PM 45.6333 -73.4500 250° West 180 207 3,000 -300 Descending Montreal Center
Sat 09:52:39 PM 45.6167 -73.5167 226° Southwest 170 196 3,000  Level Montreal Center
Sat 09:53:39 PM 45.5833 -73.5667 215° Southwest 180 207 3,000 -450 Level Montreal Center
Sat 09:54:39 PM 45.5333 -73.6167 215° Southwest 180 207 2,100 -850 Descending Montreal Center
Sat 09:55:39 PM 45.5000 -73.6500 245° Southwest 170 196 1,300 -700 Descending Montreal Center
Sat 09:56:39 PM 45.4833 -73.7000 180° South 110 127 700 -550 Descending Montreal Center
Sat 09:57:39 PM 45.4667 -73.7000 180° South 90 104 200 -500 Descending Montreal Center

Login

Don't have an account? Register now (free) for customized features, flight alerts, and more!